sensor_id;sensor_type;location;lat;lon;timestamp;pressure;altitude;pressure_sealevel;temperature;humidity
14041;BME280;7095;51.388;6.196;2022-08-20T00:02:38;58954.75;;;-145.32;100.00
14041;BME280;7095;51.388;6.196;2022-08-20T00:05:07;58863.16;;;-145.32;100.00
14041;BME280;7095;51.388;6.196;2022-08-20T00:07:35;58429.09;;;-145.32;100.00
14041;BME280;7095;51.388;6.196;2022-08-20T00:10:06;57919.47;;;-145.32;100.00
14041;BME280;7095;51.388;6.196;2022-08-20T00:12:35;58174.28;;;-145.32;100.00
14041;BME280;7095;51.388;6.196;2022-08-20T00:15:06;58741.69;;;-145.32;100.00
14041;BME280;7095;51.388;6.196;2022-08-20T00:17:35;58636.16;;;-145.32;100.00
14041;BME280;7095;51.388;6.196;2022-08-20T00:20:08;58867.13;;;-145.32;100.00
14041;BME280;7095;51.388;6.196;2022-08-20T00:22:39;59143.94;;;-145.32;100.00
14041;BME280;7095;51.388;6.196;2022-08-20T00:25:08;59147.91;;;-145.32;100.00
14041;BME280;7095;51.388;6.196;2022-08-20T00:27:37;59285.31;;;-145.32;100.00
14041;BME280;7095;51.388;6.196;2022-08-20T00:30:11;59653.75;;;-145.32;100.00
14041;BME280;7095;51.388;6.196;2022-08-20T00:32:42;60034.19;;;-145.32;100.00
14041;BME280;7095;51.388;6.196;2022-08-20T00:35:13;60603.91;;;-145.32;100.00
14041;BME280;7095;51.388;6.196;2022-08-20T00:37:46;61149.84;;;-145.32;100.00
14041;BME280;7095;51.388;6.196;2022-08-20T00:40:17;61779.53;;;-145.32;100.00
14041;BME280;7095;51.388;6.196;2022-08-20T00:42:51;62949.59;;;-145.32;100.00
14041;BME280;7095;51.388;6.196;2022-08-20T00:45:23;64979.66;;;-145.32;100.00
14041;BME280;7095;51.388;6.196;2022-08-20T00:47:52;65404.59;;;-145.32;100.00
14041;BME280;7095;51.388;6.196;2022-08-20T00:50:23;67559.91;;;-145.32;100.00
14041;BME280;7095;51.388;6.196;2022-08-20T00:52:53;69478.91;;;-145.32;100.00
14041;BME280;7095;51.388;6.196;2022-08-20T00:55:25;70603.63;;;-145.32;100.00
14041;BME280;7095;51.388;6.196;2022-08-20T00:58:00;71954.59;;;-145.32;100.00
14041;BME280;7095;51.388;6.196;2022-08-20T01:00:35;72210.47;;;-145.32;100.00
14041;BME280;7095;51.388;6.196;2022-08-20T01:03:06;72978.16;;;-145.32;100.00
14041;BME280;7095;51.388;6.196;2022-08-20T01:05:36;75282.31;;;-145.32;100.00
14041;BME280;7095;51.388;6.196;2022-08-20T01:08:06;77588.03;;;-145.32;100.00
14041;BME280;7095;51.388;6.196;2022-08-20T01:10:38;78613.28;;;-145.32;100.00
14041;BME280;7095;51.388;6.196;2022-08-20T01:13:11;79126.03;;;-145.32;100.00
14041;BME280;7095;51.388;6.196;2022-08-20T01:15:43;80151.75;;;-145.32;100.00
14041;BME280;7095;51.388;6.196;2022-08-20T01:18:24;80664.72;;;-145.32;100.00
14041;BME280;7095;51.388;6.196;2022-08-20T01:20:55;81690.91;;;-145.32;100.00
14041;BME280;7095;51.388;6.196;2022-08-20T01:23:32;82460.72;;;-145.32;100.00
14041;BME280;7095;51.388;6.196;2022-08-20T01:26:05;83230.72;;;-145.32;100.00
14041;BME280;7095;51.388;6.196;2022-08-20T01:28:39;84000.91;;;-145.32;100.00
14041;BME280;7095;51.388;6.196;2022-08-20T01:31:14;84000.91;;;-145.32;100.00
14041;BME280;7095;51.388;6.196;2022-08-20T01:33:47;84514.44;;;-145.32;100.00
14041;BME280;7095;51.388;6.196;2022-08-20T01:36:20;85541.78;;;-145.32;100.00
14041;BME280;7095;51.388;6.196;2022-08-20T01:38:49;86055.56;;;-145.32;100.00
14041;BME280;7095;51.388;6.196;2022-08-20T01:41:43;86312.47;;;-145.32;100.00
14041;BME280;7095;51.388;6.196;2022-08-20T01:44:17;87340.31;;;-145.32;100.00
14041;BME280;7095;51.388;6.196;2022-08-20T01:46:49;87597.34;;;-145.32;100.00
14041;BME280;7095;51.388;6.196;2022-08-20T01:49:20;87854.38;;;-145.32;100.00
14041;BME280;7095;51.388;6.196;2022-08-20T01:51:50;88111.41;;;-145.32;100.00
14041;BME280;7095;51.388;6.196;2022-08-20T01:54:19;87854.38;;;-145.32;100.00
14041;BME280;7095;51.388;6.196;2022-08-20T01:56:55;86312.47;;;-145.32;100.00
14041;BME280;7095;51.388;6.196;2022-08-20T01:59:26;86826.34;;;-145.32;100.00
14041;BME280;7095;51.388;6.196;2022-08-20T02:01:55;86826.34;;;-145.32;100.00
14041;BME280;7095;51.388;6.196;2022-08-20T02:04:25;86312.47;;;-145.32;100.00
14041;BME280;7095;51.388;6.196;2022-08-20T02:06:57;85284.91;;;-145.32;100.00
14041;BME280;7095;51.388;6.196;2022-08-20T02:09:27;84257.66;;;-145.32;100.00
14041;BME280;7095;51.388;6.196;2022-08-20T02:11:58;84000.91;;;-145.32;100.00
14041;BME280;7095;51.388;6.196;2022-08-20T02:14:27;81947.50;;;-145.32;100.00
14041;BME280;7095;51.388;6.196;2022-08-20T02:16:56;82460.72;;;-145.32;100.00
14041;BME280;7095;51.388;6.196;2022-08-20T02:19:28;83744.16;;;-145.32;100.00
14041;BME280;7095;51.388;6.196;2022-08-20T02:22:00;84257.66;;;-145.32;100.00
14041;BME280;7095;51.388;6.196;2022-08-20T02:24:32;85284.91;;;-145.32;100.00
14041;BME280;7095;51.388;6.196;2022-08-20T02:27:03;85798.66;;;-145.32;100.00
14041;BME280;7095;51.388;6.196;2022-08-20T02:29:31;85798.66;;;-145.32;100.00
14041;BME280;7095;51.388;6.196;2022-08-20T02:31:59;84514.44;;;-145.32;100.00
14041;BME280;7095;51.388;6.196;2022-08-20T02:34:48;83744.16;;;-145.32;100.00
14041;BME280;7095;51.388;6.196;2022-08-20T02:37:17;85028.06;;;-145.32;100.00
14041;BME280;7095;51.388;6.196;2022-08-20T02:39:45;85798.66;;;-145.32;100.00
14041;BME280;7095;51.388;6.196;2022-08-20T02:42:15;86055.56;;;-145.32;100.00
14041;BME280;7095;51.388;6.196;2022-08-20T02:44:44;85028.06;;;-145.32;100.00
14041;BME280;7095;51.388;6.196;2022-08-20T02:47:13;85028.06;;;-145.32;100.00
14041;BME280;7095;51.388;6.196;2022-08-20T02:49:43;85028.06;;;-145.32;100.00
14041;BME280;7095;51.388;6.196;2022-08-20T02:52:11;84000.91;;;-145.32;100.00
14041;BME280;7095;51.388;6.196;2022-08-20T02:54:40;84000.91;;;-145.32;100.00
14041;BME280;7095;51.388;6.196;2022-08-20T02:57:11;84514.44;;;-145.32;100.00
14041;BME280;7095;51.388;6.196;2022-08-20T02:59:42;84514.44;;;-145.32;100.00
14041;BME280;7095;51.388;6.196;2022-08-20T03:02:11;83230.72;;;-145.32;100.00
14041;BME280;7095;51.388;6.196;2022-08-20T03:04:40;81947.50;;;-145.32;100.00
14041;BME280;7095;51.388;6.196;2022-08-20T03:07:09;81690.91;;;-145.32;100.00
14041;BME280;7095;51.388;6.196;2022-08-20T03:09:39;80664.72;;;-145.32;100.00
14041;BME280;7095;51.388;6.196;2022-08-20T03:12:08;81690.91;;;-145.32;100.00
14041;BME280;7095;51.388;6.196;2022-08-20T03:14:37;82460.72;;;-145.32;100.00
14041;BME280;7095;51.388;6.196;2022-08-20T03:17:07;80151.75;;;-145.32;100.00
14041;BME280;7095;51.388;6.196;2022-08-20T03:19:35;79895.28;;;-145.32;100.00
14041;BME280;7095;51.388;6.196;2022-08-20T03:22:04;79126.03;;;-145.32;100.00
14041;BME280;7095;51.388;6.196;2022-08-20T03:24:33;79382.44;;;-145.32;100.00
14041;BME280;7095;51.388;6.196;2022-08-20T03:27:01;78356.94;;;-145.32;100.00
14041;BME280;7095;51.388;6.196;2022-08-20T03:29:30;78869.66;;;-145.32;100.00
14041;BME280;7095;51.388;6.196;2022-08-20T03:31:58;78100.63;;;-145.32;100.00
14041;BME280;7095;51.388;6.196;2022-08-20T03:34:34;78100.63;;;-145.32;100.00
14041;BME280;7095;51.388;6.196;2022-08-20T03:37:03;79126.03;;;-145.32;100.00
14041;BME280;7095;51.388;6.196;2022-08-20T03:39:31;78356.94;;;-145.32;100.00
14041;BME280;7095;51.388;6.196;2022-08-20T03:42:00;78100.63;;;-145.32;100.00
14041;BME280;7095;51.388;6.196;2022-08-20T03:44:29;78869.66;;;-145.32;100.00
14041;BME280;7095;51.388;6.196;2022-08-20T03:46:57;79126.03;;;-145.32;100.00
14041;BME280;7095;51.388;6.196;2022-08-20T03:49:26;79638.84;;;-145.32;100.00
14041;BME280;7095;51.388;6.196;2022-08-20T03:51:56;78869.66;;;-145.32;100.00
14041;BME280;7095;51.388;6.196;2022-08-20T03:54:25;78869.66;;;-145.32;100.00
14041;BME280;7095;51.388;6.196;2022-08-20T03:56:59;79126.03;;;-145.32;100.00
14041;BME280;7095;51.388;6.196;2022-08-20T03:59:39;79895.28;;;-145.32;100.00
14041;BME280;7095;51.388;6.196;2022-08-20T04:02:08;79895.28;;;-145.32;100.00
14041;BME280;7095;51.388;6.196;2022-08-20T04:04:37;80151.75;;;-145.32;100.00
14041;BME280;7095;51.388;6.196;2022-08-20T04:07:13;80151.75;;;-145.32;100.00
14041;BME280;7095;51.388;6.196;2022-08-20T04:09:42;79895.28;;;-145.32;100.00
14041;BME280;7095;51.388;6.196;2022-08-20T04:12:10;80664.72;;;-145.32;100.00
14041;BME280;7095;51.388;6.196;2022-08-20T04:14:39;79382.44;;;-145.32;100.00
14041;BME280;7095;51.388;6.196;2022-08-20T04:17:10;79638.84;;;-145.32;100.00
14041;BME280;7095;51.388;6.196;2022-08-20T04:19:40;79126.03;;;-145.32;100.00
14041;BME280;7095;51.388;6.196;2022-08-20T04:22:12;78356.94;;;-145.32;100.00
14041;BME280;7095;51.388;6.196;2022-08-20T04:24:41;76819.28;;;-145.32;100.00
14041;BME280;7095;51.388;6.196;2022-08-20T04:27:10;76819.28;;;-145.32;100.00
14041;BME280;7095;51.388;6.196;2022-08-20T04:29:40;75538.44;;;-145.32;100.00
14041;BME280;7095;51.388;6.196;2022-08-20T04:32:10;76306.91;;;-145.32;100.00
14041;BME280;7095;51.388;6.196;2022-08-20T04:34:43;76563.09;;;-145.32;100.00
14041;BME280;7095;51.388;6.196;2022-08-20T04:37:18;76563.09;;;-145.32;100.00
14041;BME280;7095;51.388;6.196;2022-08-20T04:39:47;76050.72;;;-145.32;100.00
14041;BME280;7095;51.388;6.196;2022-08-20T04:42:36;74514.09;;;-145.32;100.00
14041;BME280;7095;51.388;6.196;2022-08-20T04:45:06;74002.03;;;-145.32;100.00
14041;BME280;7095;51.388;6.196;2022-08-20T04:47:35;74002.03;;;-145.32;100.00
14041;BME280;7095;51.388;6.196;2022-08-20T04:50:07;74514.09;;;-145.32;100.00
14041;BME280;7095;51.388;6.196;2022-08-20T04:52:38;74770.16;;;-145.32;100.00
14041;BME280;7095;51.388;6.196;2022-08-20T04:55:08;73746.06;;;-145.32;100.00
14041;BME280;7095;51.388;6.196;2022-08-20T04:57:36;74002.03;;;-145.32;100.00
14041;BME280;7095;51.388;6.196;2022-08-20T05:00:07;73490.06;;;-145.32;100.00
14041;BME280;7095;51.388;6.196;2022-08-20T05:02:37;71938.59;;;-145.32;100.00
14041;BME280;7095;51.388;6.196;2022-08-20T05:05:06;72126.50;;;-145.32;100.00
14041;BME280;7095;51.388;6.196;2022-08-20T05:07:39;71954.59;;;-145.32;100.00
14041;BME280;7095;51.388;6.196;2022-08-20T05:10:11;69928.34;;;-145.32;100.00
14041;BME280;7095;51.388;6.196;2022-08-20T05:12:40;71394.97;;;-145.32;100.00
14041;BME280;7095;51.388;6.196;2022-08-20T05:15:23;70307.94;;;-145.32;100.00
14041;BME280;7095;51.388;6.196;2022-08-20T05:17:54;68945.63;;;-145.32;100.00
14041;BME280;7095;51.388;6.196;2022-08-20T05:20:24;70124.13;;;-145.32;100.00
14041;BME280;7095;51.388;6.196;2022-08-20T05:22:59;70741.50;;;-145.32;100.00
14041;BME280;7095;51.388;6.196;2022-08-20T05:25:28;71279.03;;;-145.32;100.00
14041;BME280;7095;51.388;6.196;2022-08-20T05:27:58;66869.25;;;-145.32;100.00
14041;BME280;7095;51.388;6.196;2022-08-20T05:30:28;64054.22;;;-145.32;100.00
14041;BME280;7095;51.388;6.196;2022-08-20T05:33:01;63358.28;;;-145.32;100.00
14041;BME280;7095;51.388;6.196;2022-08-20T05:35:31;63242.66;;;-145.32;100.00
14041;BME280;7095;51.388;6.196;2022-08-20T05:38:02;62445.25;;;-145.32;100.00
14041;BME280;7095;51.388;6.196;2022-08-20T05:40:30;63003.41;;;-145.32;100.00
14041;BME280;7095;51.388;6.196;2022-08-20T05:42:59;63290.50;;;-145.32;100.00
14041;BME280;7095;51.388;6.196;2022-08-20T05:45:31;63280.53;;;-145.32;100.00
14041;BME280;7095;51.388;6.196;2022-08-20T05:48:03;62401.38;;;-145.32;100.00
14041;BME280;7095;51.388;6.196;2022-08-20T05:50:32;61986.81;;;-145.32;100.00
14041;BME280;7095;51.388;6.196;2022-08-20T05:53:03;61805.44;;;-145.32;100.00
14041;BME280;7095;51.388;6.196;2022-08-20T05:55:32;61197.66;;;-145.32;100.00
14041;BME280;7095;51.388;6.196;2022-08-20T05:58:05;61337.13;;;-145.32;100.00
14041;BME280;7095;51.388;6.196;2022-08-20T06:00:34;61938.97;;;-145.32;100.00
14041;BME280;7095;51.388;6.196;2022-08-20T06:03:03;61703.81;;;-145.32;100.00
14041;BME280;7095;51.388;6.196;2022-08-20T06:05:49;62058.56;;;-145.32;100.00
14041;BME280;7095;51.388;6.196;2022-08-20T06:08:19;62758.19;;;-145.32;100.00
14041;BME280;7095;51.388;6.196;2022-08-20T06:10:48;63158.91;;;-145.32;100.00
14041;BME280;7095;51.388;6.196;2022-08-20T06:13:17;63115.06;;;-145.32;100.00
14041;BME280;7095;51.388;6.196;2022-08-20T06:15:46;62859.88;;;-145.32;100.00
14041;BME280;7095;51.388;6.196;2022-08-20T06:18:15;62700.38;;;-145.32;100.00
14041;BME280;7095;51.388;6.196;2022-08-20T06:20:55;61646.00;;;-145.32;100.00
14041;BME280;7095;51.388;6.196;2022-08-20T06:23:25;61233.53;;;-145.32;100.00
14041;BME280;7095;51.388;6.196;2022-08-20T06:26:16;59771.28;;;-145.32;100.00
14041;BME280;7095;51.388;6.196;2022-08-20T06:28:56;58926.88;;;-145.32;100.00
14041;BME280;7095;51.388;6.196;2022-08-20T06:31:24;58664.03;;;-145.32;100.00
14041;BME280;7095;51.388;6.196;2022-08-20T06:33:53;58476.88;;;-145.32;100.00
14041;BME280;7095;51.388;6.196;2022-08-20T06:36:23;58186.22;;;-145.32;100.00
14041;BME280;7095;51.388;6.196;2022-08-20T06:38:53;57752.25;;;-145.32;100.00
14041;BME280;7095;51.388;6.196;2022-08-20T06:41:22;57702.47;;;-145.32;100.00
14041;BME280;7095;51.388;6.196;2022-08-20T06:44:02;56804.88;;;-145.32;100.00
14041;BME280;7095;51.388;6.196;2022-08-20T06:46:31;56613.84;;;-145.32;100.00
14041;BME280;7095;51.388;6.196;2022-08-20T06:49:00;56530.25;;;-145.32;100.00
14041;BME280;7095;51.388;6.196;2022-08-20T06:51:29;55957.25;;;-145.32;100.00
14041;BME280;7095;51.388;6.196;2022-08-20T06:53:59;55800.06;;;-145.32;100.00
14041;BME280;7095;51.388;6.196;2022-08-20T06:56:28;55692.66;;;-145.32;100.00
14041;BME280;7095;51.388;6.196;2022-08-20T06:58:59;55247.06;;;-145.32;100.00
14041;BME280;7095;51.388;6.196;2022-08-20T07:01:27;55203.31;;;-145.32;100.00
14041;BME280;7095;51.388;6.196;2022-08-20T07:03:56;55201.31;;;-145.32;100.00
14041;BME280;7095;51.388;6.196;2022-08-20T07:06:26;55151.59;;;-145.32;100.00
14041;BME280;7095;51.388;6.196;2022-08-20T07:08:55;55097.88;;;-145.32;100.00
14041;BME280;7095;51.388;6.196;2022-08-20T07:11:25;54831.38;;;-145.32;100.00
14041;BME280;7095;51.388;6.196;2022-08-20T07:13:55;54773.69;;;-145.32;100.00
14041;BME280;7095;51.388;6.196;2022-08-20T07:16:24;54835.34;;;-145.32;100.00
14041;BME280;7095;51.388;6.196;2022-08-20T07:18:53;54654.38;;;-145.32;100.00
14041;BME280;7095;51.388;6.196;2022-08-20T07:21:22;54696.13;;;-145.32;100.00
14041;BME280;7095;51.388;6.196;2022-08-20T07:23:51;54413.72;;;-145.32;100.00
14041;BME280;7095;51.388;6.196;2022-08-20T07:26:21;54292.44;;;-145.32;100.00
14041;BME280;7095;51.388;6.196;2022-08-20T07:28:52;54360.03;;;-145.32;100.00
14041;BME280;7095;51.388;6.196;2022-08-20T07:31:22;54413.72;;;-145.32;100.00
14041;BME280;7095;51.388;6.196;2022-08-20T07:34:08;54485.31;;;-145.32;100.00
14041;BME280;7095;51.388;6.196;2022-08-20T07:36:37;54473.41;;;-145.32;100.00
14041;BME280;7095;51.388;6.196;2022-08-20T07:39:06;54507.19;;;-145.32;100.00
14041;BME280;7095;51.388;6.196;2022-08-20T07:41:35;54405.78;;;-145.32;100.00
14041;BME280;7095;51.388;6.196;2022-08-20T07:44:05;54481.34;;;-145.32;100.00
14041;BME280;7095;51.388;6.196;2022-08-20T07:46:33;54409.75;;;-145.32;100.00
14041;BME280;7095;51.388;6.196;2022-08-20T07:49:02;54537.03;;;-145.32;100.00
14041;BME280;7095;51.388;6.196;2022-08-20T07:51:35;54274.53;;;-145.32;100.00
14041;BME280;7095;51.388;6.196;2022-08-20T07:54:03;54117.44;;;-145.32;100.00
14041;BME280;7095;51.388;6.196;2022-08-20T07:56:32;54105.50;;;-145.32;100.00
14041;BME280;7095;51.388;6.196;2022-08-20T07:59:02;54117.44;;;-145.32;100.00
14041;BME280;7095;51.388;6.196;2022-08-20T08:01:32;54127.38;;;-145.32;100.00
14041;BME280;7095;51.388;6.196;2022-08-20T08:04:01;54049.84;;;-145.32;100.00
14041;BME280;7095;51.388;6.196;2022-08-20T08:06:30;54031.94;;;-145.32;100.00
14041;BME280;7095;51.388;6.196;2022-08-20T08:09:04;54055.81;;;-145.32;100.00
14041;BME280;7095;51.388;6.196;2022-08-20T08:11:35;54055.81;;;-145.32;100.00
14041;BME280;7095;51.388;6.196;2022-08-20T08:14:06;54008.09;;;-145.32;100.00
14041;BME280;7095;51.388;6.196;2022-08-20T08:16:37;54071.72;;;-145.32;100.00
14041;BME280;7095;51.388;6.196;2022-08-20T08:19:07;54016.03;;;-145.32;100.00
14041;BME280;7095;51.388;6.196;2022-08-20T08:21:38;54067.75;;;-145.32;100.00
14041;BME280;7095;51.388;6.196;2022-08-20T08:24:07;53996.16;;;-145.32;100.00
14041;BME280;7095;51.388;6.196;2022-08-20T08:26:40;53980.25;;;-145.32;100.00
14041;BME280;7095;51.388;6.196;2022-08-20T08:29:09;53948.44;;;-145.32;100.00
14041;BME280;7095;51.388;6.196;2022-08-20T08:31:39;53996.16;;;-145.32;100.00
14041;BME280;7095;51.388;6.196;2022-08-20T08:34:08;53952.41;;;-145.32;100.00
14041;BME280;7095;51.388;6.196;2022-08-20T08:36:37;53958.38;;;-145.32;100.00
14041;BME280;7095;51.388;6.196;2022-08-20T08:39:06;53970.31;;;-145.32;100.00
14041;BME280;7095;51.388;6.196;2022-08-20T08:41:38;53932.53;;;-145.32;100.00
14041;BME280;7095;51.388;6.196;2022-08-20T08:44:13;53984.22;;;-145.32;100.00
14041;BME280;7095;51.388;6.196;2022-08-20T08:46:51;53916.63;;;-145.32;100.00
14041;BME280;7095;51.388;6.196;2022-08-20T08:49:25;53942.47;;;-145.32;100.00
14041;BME280;7095;51.388;6.196;2022-08-20T08:52:06;53916.63;;;-145.32;100.00
14041;BME280;7095;51.388;6.196;2022-08-20T08:54:40;53926.56;;;-145.32;100.00
14041;BME280;7095;51.388;6.196;2022-08-20T08:57:10;53847.03;;;-145.32;100.00
14041;BME280;7095;51.388;6.196;2022-08-20T08:59:38;53868.91;;;-145.32;100.00
14041;BME280;7095;51.388;6.196;2022-08-20T09:02:29;53821.19;;;-145.32;100.00
14041;BME280;7095;51.388;6.196;2022-08-20T09:05:01;53773.47;;;-145.32;100.00
14041;BME280;7095;51.388;6.196;2022-08-20T09:07:32;53725.75;;;-145.32;100.00
14041;BME280;7095;51.388;6.196;2022-08-20T09:10:00;53741.66;;;-145.32;100.00
14041;BME280;7095;51.388;6.196;2022-08-20T09:12:29;53707.84;;;-145.32;100.00
14041;BME280;7095;51.388;6.196;2022-08-20T09:14:59;53691.94;;;-145.32;100.00
14041;BME280;7095;51.388;6.196;2022-08-20T09:17:29;53672.06;;;-145.32;100.00
14041;BME280;7095;51.388;6.196;2022-08-20T09:19:57;53646.22;;;-145.32;100.00
14041;BME280;7095;51.388;6.196;2022-08-20T09:22:25;53614.41;;;-145.32;100.00
14041;BME280;7095;51.388;6.196;2022-08-20T09:24:54;53616.41;;;-145.32;100.00
14041;BME280;7095;51.388;6.196;2022-08-20T09:27:24;53594.53;;;-145.32;100.00
14041;BME280;7095;51.388;6.196;2022-08-20T09:29:52;53598.50;;;-145.32;100.00
14041;BME280;7095;51.388;6.196;2022-08-20T09:32:22;53606.47;;;-145.32;100.00
14041;BME280;7095;51.388;6.196;2022-08-20T09:34:54;53560.72;;;-145.32;100.00
14041;BME280;7095;51.388;6.196;2022-08-20T09:37:24;53568.69;;;-145.32;100.00
14041;BME280;7095;51.388;6.196;2022-08-20T09:39:53;53558.75;;;-145.32;100.00
14041;BME280;7095;51.388;6.196;2022-08-20T09:42:24;53562.72;;;-145.32;100.00
14041;BME280;7095;51.388;6.196;2022-08-20T09:44:54;53540.84;;;-145.32;100.00
14041;BME280;7095;51.388;6.196;2022-08-20T09:47:23;53530.91;;;-145.32;100.00
14041;BME280;7095;51.388;6.196;2022-08-20T09:49:53;53489.16;;;-145.32;100.00
14041;BME280;7095;51.388;6.196;2022-08-20T09:52:24;53518.97;;;-145.32;100.00
14041;BME280;7095;51.388;6.196;2022-08-20T09:54:58;53455.38;;;-145.32;100.00
14041;BME280;7095;51.388;6.196;2022-08-20T09:57:28;53455.38;;;-145.32;100.00
14041;BME280;7095;51.388;6.196;2022-08-20T09:59:59;53423.56;;;-145.32;100.00
14041;BME280;7095;51.388;6.196;2022-08-20T10:02:38;53427.53;;;-145.32;100.00
14041;BME280;7095;51.388;6.196;2022-08-20T10:05:08;53417.59;;;-145.32;100.00
14041;BME280;7095;51.388;6.196;2022-08-20T10:07:38;53419.59;;;-145.32;100.00
14041;BME280;7095;51.388;6.196;2022-08-20T10:10:11;53415.59;;;-145.32;100.00
14041;BME280;7095;51.388;6.196;2022-08-20T10:12:40;53369.88;;;-145.32;100.00
14041;BME280;7095;51.388;6.196;2022-08-20T10:15:09;53340.06;;;-145.32;100.00
14041;BME280;7095;51.388;6.196;2022-08-20T10:17:39;53314.22;;;-145.32;100.00
14041;BME280;7095;51.388;6.196;2022-08-20T10:20:11;53359.94;;;-145.32;100.00
14041;BME280;7095;51.388;6.196;2022-08-20T10:22:40;53308.25;;;-145.32;100.00
14041;BME280;7095;51.388;6.196;2022-08-20T10:25:09;53324.16;;;-145.32;100.00
14041;BME280;7095;51.388;6.196;2022-08-20T10:27:39;53316.22;;;-145.32;100.00
14041;BME280;7095;51.388;6.196;2022-08-20T10:30:09;53328.13;;;-145.32;100.00
14041;BME280;7095;51.388;6.196;2022-08-20T10:32:37;53290.38;;;-145.32;100.00
14041;BME280;7095;51.388;6.196;2022-08-20T10:35:06;53316.22;;;-145.32;100.00
14041;BME280;7095;51.388;6.196;2022-08-20T10:37:36;53306.28;;;-145.32;100.00
14041;BME280;7095;51.388;6.196;2022-08-20T10:40:06;53300.31;;;-145.32;100.00
14041;BME280;7095;51.388;6.196;2022-08-20T10:42:35;53312.22;;;-145.32;100.00
14041;BME280;7095;51.388;6.196;2022-08-20T10:45:09;53292.34;;;-145.32;100.00
14041;BME280;7095;51.388;6.196;2022-08-20T10:47:37;53306.28;;;-145.32;100.00
14041;BME280;7095;51.388;6.196;2022-08-20T10:50:08;53260.53;;;-145.32;100.00
14041;BME280;7095;51.388;6.196;2022-08-20T10:52:38;53300.31;;;-145.32;100.00
14041;BME280;7095;51.388;6.196;2022-08-20T10:55:08;53262.53;;;-145.32;100.00
14041;BME280;7095;51.388;6.196;2022-08-20T10:57:38;53252.59;;;-145.32;100.00
14041;BME280;7095;51.388;6.196;2022-08-20T11:00:09;53254.59;;;-145.32;100.00
14041;BME280;7095;51.388;6.196;2022-08-20T11:02:38;53272.47;;;-145.32;100.00
14041;BME280;7095;51.388;6.196;2022-08-20T11:05:07;53262.53;;;-145.32;100.00
14041;BME280;7095;51.388;6.196;2022-08-20T11:07:39;53264.53;;;-145.32;100.00
14041;BME280;7095;51.388;6.196;2022-08-20T11:10:22;53240.66;;;-145.32;100.00
14041;BME280;7095;51.388;6.196;2022-08-20T11:12:51;53248.63;;;-145.32;100.00
14041;BME280;7095;51.388;6.196;2022-08-20T11:15:20;53202.91;;;-145.32;100.00
14041;BME280;7095;51.388;6.196;2022-08-20T11:17:48;53236.69;;;-145.32;100.00
14041;BME280;7095;51.388;6.196;2022-08-20T11:20:19;53244.63;;;-145.32;100.00
14041;BME280;7095;51.388;6.196;2022-08-20T11:22:49;53244.63;;;-145.32;100.00
14041;BME280;7095;51.388;6.196;2022-08-20T11:25:19;53216.81;;;-145.32;100.00
14041;BME280;7095;51.388;6.196;2022-08-20T11:27:50;53244.63;;;-145.32;100.00
14041;BME280;7095;51.388;6.196;2022-08-20T11:30:21;53216.81;;;-145.32;100.00
14041;BME280;7095;51.388;6.196;2022-08-20T11:32:50;53242.66;;;-145.32;100.00
14041;BME280;7095;51.388;6.196;2022-08-20T11:35:18;53232.72;;;-145.32;100.00
14041;BME280;7095;51.388;6.196;2022-08-20T11:38:11;53232.72;;;-145.32;100.00
14041;BME280;7095;51.388;6.196;2022-08-20T11:40:39;53224.75;;;-145.32;100.00
14041;BME280;7095;51.388;6.196;2022-08-20T11:43:08;53242.66;;;-145.32;100.00
14041;BME280;7095;51.388;6.196;2022-08-20T11:45:41;53232.72;;;-145.32;100.00
14041;BME280;7095;51.388;6.196;2022-08-20T11:48:10;53252.59;;;-145.32;100.00
14041;BME280;7095;51.388;6.196;2022-08-20T11:50:39;53220.78;;;-145.32;100.00
14041;BME280;7095;51.388;6.196;2022-08-20T11:53:07;53228.75;;;-145.32;100.00
14041;BME280;7095;51.388;6.196;2022-08-20T11:55:37;53240.66;;;-145.32;100.00
14041;BME280;7095;51.388;6.196;2022-08-20T11:58:08;53254.59;;;-145.32;100.00
14041;BME280;7095;51.388;6.196;2022-08-20T12:00:37;53214.81;;;-145.32;100.00
14041;BME280;7095;51.388;6.196;2022-08-20T12:03:06;53214.81;;;-145.32;100.00
14041;BME280;7095;51.388;6.196;2022-08-20T12:05:39;53228.75;;;-145.32;100.00
14041;BME280;7095;51.388;6.196;2022-08-20T12:08:13;53196.94;;;-145.32;100.00
14041;BME280;7095;51.388;6.196;2022-08-20T12:10:58;53224.75;;;-145.32;100.00
14041;BME280;7095;51.388;6.196;2022-08-20T12:13:29;53208.84;;;-145.32;100.00
14041;BME280;7095;51.388;6.196;2022-08-20T12:16:15;53220.78;;;-145.32;86.75
14041;BME280;7095;51.388;6.196;2022-08-20T12:18:44;53187.00;;;-145.32;74.91
14041;BME280;7095;51.388;6.196;2022-08-20T12:21:13;53185.00;;;-145.32;69.42
14041;BME280;7095;51.388;6.196;2022-08-20T12:23:41;53206.88;;;-145.32;63.68
14041;BME280;7095;51.388;6.196;2022-08-20T12:26:11;53187.00;;;-145.32;60.71
14041;BME280;7095;51.388;6.196;2022-08-20T12:28:40;53204.88;;;-145.32;57.94
14041;BME280;7095;51.388;6.196;2022-08-20T12:31:08;53167.13;;;-145.32;56.32
14041;BME280;7095;51.388;6.196;2022-08-20T12:33:37;53175.06;;;-145.32;56.71
14041;BME280;7095;51.388;6.196;2022-08-20T12:36:06;53183.00;;;-145.32;55.65
14041;BME280;7095;51.388;6.196;2022-08-20T12:38:35;53181.03;;;-145.32;56.05
14041;BME280;7095;51.388;6.196;2022-08-20T12:41:04;53177.06;;;-145.32;54.03
14041;BME280;7095;51.388;6.196;2022-08-20T12:43:34;53161.16;;;-145.32;51.78
14041;BME280;7095;51.388;6.196;2022-08-20T12:46:02;53151.22;;;-145.32;53.34
14041;BME280;7095;51.388;6.196;2022-08-20T12:48:31;53161.16;;;-145.32;51.30
14041;BME280;7095;51.388;6.196;2022-08-20T12:50:59;53169.09;;;-145.32;51.61
14041;BME280;7095;51.388;6.196;2022-08-20T12:53:28;53149.22;;;-145.32;47.28
14041;BME280;7095;51.388;6.196;2022-08-20T12:55:57;53129.34;;;-145.32;45.94
14041;BME280;7095;51.388;6.196;2022-08-20T12:58:25;53202.91;;;-145.32;45.14
14041;BME280;7095;51.388;6.196;2022-08-20T13:00:55;53204.88;;;-145.32;45.28